createdAt,value
2019-02-25T00:02:33.002Z,20.90
2019-02-25T00:05:05.304Z,21.00
2019-02-25T00:07:37.380Z,23.18
2019-02-25T00:10:09.645Z,23.32
2019-02-25T00:12:44.708Z,22.58
2019-02-25T00:15:16.671Z,19.87
2019-02-25T00:18:03.777Z,18.77
2019-02-25T00:20:36.592Z,19.07
2019-02-25T00:23:08.503Z,18.67
2019-02-25T00:25:40.346Z,19.07
2019-02-25T00:28:12.995Z,19.25
2019-02-25T00:30:44.796Z,19.95
2019-02-25T00:33:16.697Z,18.62
2019-02-25T00:35:48.829Z,19.77
2019-02-25T00:38:20.654Z,19.62
2019-02-25T00:40:52.554Z,18.23
2019-02-25T00:43:25.009Z,18.67
2019-02-25T00:45:57.370Z,17.82
2019-02-25T00:48:29.260Z,18.55
2019-02-25T00:51:01.060Z,17.45
2019-02-25T00:53:32.950Z,17.10
2019-02-25T00:56:04.820Z,19.67
2019-02-25T00:58:37.084Z,19.07
2019-02-25T01:01:08.892Z,17.50
2019-02-25T01:03:40.760Z,20.23
2019-02-25T01:06:13.704Z,19.85
2019-02-25T01:08:45.540Z,20.30
2019-02-25T01:11:19.442Z,19.45
2019-02-25T01:13:52.275Z,19.62
2019-02-25T01:16:24.105Z,18.87
2019-02-25T01:18:56.314Z,18.27
2019-02-25T01:21:28.375Z,17.00
2019-02-25T01:24:00.831Z,18.15
2019-02-25T01:26:32.642Z,17.10
2019-02-25T01:29:04.484Z,16.00
2019-02-25T01:31:36.463Z,17.40
2019-02-25T01:34:08.304Z,15.55
2019-02-25T01:36:40.144Z,16.20
2019-02-25T01:39:11.973Z,15.68
2019-02-25T01:41:44.413Z,15.65
2019-02-25T01:44:16.324Z,16.37
2019-02-25T01:46:48.197Z,16.42
2019-02-25T01:49:19.994Z,16.10
2019-02-25T01:51:51.866Z,16.25
2019-02-25T01:54:23.699Z,16.57
2019-02-25T01:56:55.517Z,16.97
2019-02-25T01:59:27.291Z,16.07
2019-02-25T02:02:00.304Z,17.80
2019-02-25T02:04:33.521Z,17.37
2019-02-25T02:07:06.984Z,18.85
2019-02-25T02:09:38.957Z,16.85
2019-02-25T02:12:10.750Z,16.25
2019-02-25T02:14:42.577Z,16.12
2019-02-25T02:17:14.971Z,15.70
2019-02-25T02:19:48.036Z,16.27
2019-02-25T02:22:21.430Z,17.65
2019-02-25T02:24:56.070Z,18.27
2019-02-25T02:27:27.861Z,16.50
2019-02-25T02:29:59.723Z,17.65
2019-02-25T02:32:31.848Z,16.20
2019-02-25T02:35:05.167Z,16.40
2019-02-25T02:37:37.006Z,15.18
2019-02-25T02:40:10.887Z,14.83
2019-02-25T02:42:46.945Z,15.30
2019-02-25T02:45:43.028Z,16.37
2019-02-25T02:48:21.234Z,16.62
2019-02-25T02:50:53.714Z,16.17
2019-02-25T02:53:25.622Z,16.57
2019-02-25T02:55:57.379Z,16.07
2019-02-25T02:58:29.243Z,14.83
2019-02-25T03:01:01.018Z,14.83
2019-02-25T03:03:32.856Z,14.05
2019-02-25T03:06:04.677Z,13.80
2019-02-25T03:08:36.863Z,14.40
2019-02-25T03:11:08.698Z,11.53
2019-02-25T03:13:40.603Z,12.28
2019-02-25T03:16:12.417Z,12.87
2019-02-25T03:18:44.263Z,14.18
2019-02-25T03:21:16.047Z,15.40
2019-02-25T03:23:47.870Z,15.38
2019-02-25T03:26:20.162Z,15.93
2019-02-25T03:28:52.042Z,14.25
2019-02-25T03:31:25.605Z,14.30
2019-02-25T03:33:57.533Z,15.23
2019-02-25T03:36:29.703Z,14.83
2019-02-25T03:39:01.527Z,15.03
2019-02-25T03:41:36.339Z,15.15
2019-02-25T03:44:08.769Z,15.00
2019-02-25T03:46:40.548Z,16.03
2019-02-25T03:49:12.391Z,14.68
2019-02-25T03:51:47.358Z,14.85
2019-02-25T03:54:19.143Z,15.80
2019-02-25T03:56:51.373Z,15.93
2019-02-25T03:59:24.259Z,15.18
2019-02-25T04:01:56.234Z,16.00
2019-02-25T04:04:28.025Z,15.03
2019-02-25T04:06:59.999Z,14.55
2019-02-25T04:09:31.779Z,15.50
2019-02-25T04:12:03.601Z,14.85
2019-02-25T04:14:35.463Z,14.15
2019-02-25T04:17:07.927Z,15.68
2019-02-25T04:19:39.758Z,14.93
2019-02-25T04:22:11.760Z,13.50
2019-02-25T04:24:43.611Z,14.00
2019-02-25T04:27:15.394Z,13.78
2019-02-25T04:29:47.759Z,14.05
2019-02-25T04:32:21.814Z,13.80
2019-02-25T04:34:53.743Z,14.30
2019-02-25T04:37:25.880Z,14.13
2019-02-25T04:39:57.816Z,14.45
2019-02-25T04:42:29.647Z,13.28
2019-02-25T04:45:01.498Z,14.25
2019-02-25T04:47:34.723Z,13.62
2019-02-25T04:50:10.094Z,12.15
2019-02-25T04:52:43.652Z,14.45
2019-02-25T04:55:15.738Z,14.98
2019-02-25T04:57:47.659Z,13.93
2019-02-25T05:00:19.461Z,12.55
2019-02-25T05:02:51.299Z,12.78
2019-02-25T05:05:24.499Z,13.13
2019-02-25T05:07:56.361Z,12.95
2019-02-25T05:10:28.157Z,13.05
2019-02-25T05:13:04.512Z,12.80
2019-02-25T05:15:37.929Z,12.53
2019-02-25T05:18:09.779Z,12.45
2019-02-25T05:20:41.602Z,12.33
2019-02-25T05:23:15.917Z,12.23
2019-02-25T05:25:47.954Z,13.25
2019-02-25T05:28:20.430Z,12.53
2019-02-25T05:30:54.536Z,12.20
2019-02-25T05:33:27.627Z,13.38
2019-02-25T05:35:59.457Z,12.18
2019-02-25T05:38:31.324Z,11.80
2019-02-25T05:41:03.175Z,11.03
2019-02-25T05:43:35.004Z,11.88
2019-02-25T05:46:06.794Z,10.10
2019-02-25T05:48:38.662Z,11.97
2019-02-25T05:51:10.950Z,11.10
2019-02-25T05:53:42.784Z,11.40
2019-02-25T05:56:14.586Z,11.07
2019-02-25T05:58:46.715Z,11.83
2019-02-25T06:01:18.528Z,13.13
2019-02-25T06:03:50.345Z,11.12
2019-02-25T06:06:22.193Z,11.77
2019-02-25T06:08:54.306Z,11.70
2019-02-25T06:11:26.061Z,11.65
2019-02-25T06:13:58.091Z,13.03
2019-02-25T06:16:29.890Z,12.18
2019-02-25T06:19:01.861Z,10.90
2019-02-25T06:21:33.677Z,11.90
2019-02-25T06:24:07.191Z,11.38
2019-02-25T06:26:39.088Z,12.60
2019-02-25T06:29:11.654Z,10.95
2019-02-25T06:31:43.517Z,11.12
2019-02-25T06:34:15.329Z,12.37
2019-02-25T06:36:47.145Z,10.87
2019-02-25T06:39:18.960Z,10.55
2019-02-25T06:41:52.868Z,10.13
2019-02-25T06:44:26.205Z,10.88
2019-02-25T06:47:02.458Z,11.55
2019-02-25T06:49:38.585Z,11.47
2019-02-25T06:52:16.976Z,10.47
2019-02-25T06:54:54.454Z,11.10
2019-02-25T06:57:28.270Z,10.93
2019-02-25T07:00:01.801Z,10.98
2019-02-25T07:02:36.861Z,10.67
2019-02-25T07:05:29.669Z,10.73
2019-02-25T07:08:12.038Z,10.73
2019-02-25T07:11:15.060Z,11.28
2019-02-25T07:14:16.358Z,10.67
2019-02-25T07:17:22.625Z,10.18
2019-02-25T07:20:16.817Z,11.30
2019-02-25T07:23:03.798Z,9.83
2019-02-25T07:26:03.869Z,11.25
2019-02-25T07:28:51.695Z,10.18
2019-02-25T07:31:48.412Z,10.48
2019-02-25T07:34:31.105Z,9.23
2019-02-25T07:37:37.319Z,9.15
2019-02-25T07:40:30.836Z,9.98
2019-02-25T07:43:25.987Z,9.80
2019-02-25T07:46:21.885Z,9.20
2019-02-25T07:49:13.900Z,11.43
2019-02-25T07:52:23.582Z,10.75
2019-02-25T07:55:14.072Z,11.50
2019-02-25T07:58:14.728Z,10.25
2019-02-25T08:00:57.184Z,11.68
2019-02-25T08:03:46.709Z,10.80
2019-02-25T08:06:46.890Z,10.58
2019-02-25T08:09:29.317Z,10.60
2019-02-25T08:12:09.432Z,11.15
2019-02-25T08:14:59.751Z,9.58
2019-02-25T08:17:54.780Z,10.63
2019-02-25T08:20:59.770Z,10.18
2019-02-25T08:24:01.439Z,10.53
2019-02-25T08:26:50.579Z,10.65
2019-02-25T08:29:46.723Z,10.50
2019-02-25T08:32:43.269Z,10.32
2019-02-25T08:36:07.344Z,9.60
2019-02-25T08:38:51.827Z,9.90
2019-02-25T08:41:43.436Z,9.50
2019-02-25T08:44:34.389Z,10.82
2019-02-25T08:47:17.715Z,10.80
2019-02-25T08:49:52.464Z,10.72
2019-02-25T08:52:25.217Z,9.60
2019-02-25T08:54:57.784Z,9.65
2019-02-25T08:57:31.472Z,10.08
2019-02-25T09:00:03.418Z,10.82
2019-02-25T09:02:36.930Z,11.03
2019-02-25T09:05:11.366Z,10.78
2019-02-25T09:07:43.475Z,10.23
2019-02-25T09:10:23.487Z,11.80
2019-02-25T09:12:55.477Z,12.00
2019-02-25T09:15:27.714Z,12.33
2019-02-25T09:17:57.784Z,13.32
2019-02-25T09:20:29.578Z,13.08
2019-02-25T09:23:01.526Z,14.00
2019-02-25T09:25:33.492Z,16.25
2019-02-25T09:28:07.046Z,16.50
2019-02-25T09:30:42.163Z,20.92
2019-02-25T09:33:14.210Z,20.40
2019-02-25T09:35:46.484Z,20.65
2019-02-25T09:38:18.398Z,21.02
2019-02-25T09:40:50.272Z,19.48
2019-02-25T09:43:22.077Z,19.15
2019-02-25T09:45:54.075Z,19.05
2019-02-25T09:48:25.992Z,17.45
2019-02-25T09:50:57.830Z,14.35
2019-02-25T09:53:30.159Z,12.70
2019-02-25T09:56:02.587Z,14.80
2019-02-25T09:58:34.439Z,15.35
2019-02-25T10:01:06.896Z,12.55
2019-02-25T10:03:38.787Z,11.53
2019-02-25T10:06:12.804Z,11.25
2019-02-25T10:08:44.209Z,11.95
2019-02-25T10:11:19.950Z,13.13
2019-02-25T10:13:52.004Z,11.63
2019-02-25T10:16:23.905Z,12.33
2019-02-25T10:18:55.808Z,12.68
2019-02-25T10:21:27.927Z,11.55
2019-02-25T10:24:00.052Z,11.70
2019-02-25T10:26:32.138Z,10.95
2019-02-25T10:29:04.071Z,10.50
2019-02-25T10:31:38.078Z,9.30
2019-02-25T10:34:09.561Z,8.93
2019-02-25T10:36:41.433Z,9.15
2019-02-25T10:39:15.518Z,8.70
2019-02-25T10:41:46.803Z,9.23
2019-02-25T10:44:19.873Z,8.73
2019-02-25T10:46:51.739Z,9.48
2019-02-25T10:49:24.597Z,9.65
2019-02-25T10:51:58.745Z,10.70
2019-02-25T10:54:30.894Z,9.78
2019-02-25T10:57:08.447Z,9.20
2019-02-25T10:59:41.662Z,9.28
2019-02-25T11:02:15.264Z,9.68
2019-02-25T11:04:47.376Z,9.30
2019-02-25T11:07:20.984Z,9.75
2019-02-25T11:10:07.845Z,10.28
2019-02-25T11:12:40.507Z,10.43
2019-02-25T11:15:13.844Z,9.73
2019-02-25T11:17:47.685Z,10.40
2019-02-25T11:20:20.446Z,10.50
2019-02-25T11:22:52.298Z,10.85
2019-02-25T11:25:26.194Z,9.95
2019-02-25T11:27:57.912Z,10.90
2019-02-25T11:30:29.872Z,11.03
2019-02-25T11:33:01.692Z,11.00
2019-02-25T11:35:34.246Z,11.60
2019-02-25T11:38:06.197Z,11.68
2019-02-25T11:40:38.476Z,11.83
2019-02-25T11:43:11.217Z,12.85
2019-02-25T11:45:43.884Z,12.23
2019-02-25T11:48:15.715Z,11.93
2019-02-25T11:50:47.670Z,11.18
2019-02-25T11:53:22.503Z,11.80
2019-02-25T11:55:54.369Z,10.75
2019-02-25T11:58:27.969Z,11.68
2019-02-25T12:01:00.112Z,10.85
2019-02-25T12:03:31.897Z,11.30
2019-02-25T12:06:03.803Z,11.55
2019-02-25T12:08:35.594Z,11.88
2019-02-25T12:11:08.730Z,12.03
2019-02-25T12:13:40.678Z,13.08
2019-02-25T12:16:12.581Z,12.45
2019-02-25T12:18:44.844Z,11.83
2019-02-25T12:21:18.127Z,11.15
2019-02-25T12:23:49.976Z,10.88
2019-02-25T12:26:21.832Z,12.07
2019-02-25T12:28:53.972Z,11.78
2019-02-25T12:31:26.672Z,11.75
2019-02-25T12:34:01.019Z,10.88
2019-02-25T12:36:32.939Z,9.90
2019-02-25T12:39:07.318Z,10.72
2019-02-25T12:41:40.644Z,10.32
2019-02-25T12:44:12.489Z,12.15
2019-02-25T12:46:45.806Z,11.40
2019-02-25T12:49:17.657Z,9.80
2019-02-25T12:51:49.571Z,12.15
2019-02-25T12:54:21.373Z,10.30
2019-02-25T12:56:54.930Z,10.28
2019-02-25T12:59:28.288Z,10.00
2019-02-25T13:02:00.148Z,10.90
2019-02-25T13:04:40.101Z,9.98
2019-02-25T13:07:12.359Z,11.20
2019-02-25T13:09:44.320Z,10.93
2019-02-25T13:12:16.175Z,11.73
2019-02-25T13:14:48.015Z,11.25
2019-02-25T13:17:23.037Z,10.98
2019-02-25T13:19:55.237Z,9.25
2019-02-25T13:22:30.321Z,8.28
2019-02-25T13:25:03.266Z,8.83
2019-02-25T13:27:35.735Z,7.75
2019-02-25T13:30:09.777Z,8.20
2019-02-25T13:32:41.596Z,6.50
2019-02-25T13:35:14.093Z,6.53
2019-02-25T13:37:46.155Z,6.83
2019-02-25T13:40:18.342Z,6.95
2019-02-25T13:42:50.851Z,6.30
2019-02-25T13:45:22.992Z,12.63
2019-02-25T13:47:57.993Z,7.15
2019-02-25T13:50:31.408Z,6.08
2019-02-25T13:53:03.362Z,5.97
2019-02-25T13:55:35.519Z,6.97
2019-02-25T13:58:10.406Z,8.00
2019-02-25T14:00:44.016Z,10.20
2019-02-25T14:03:15.974Z,10.78
2019-02-25T14:05:49.479Z,8.18
2019-02-25T14:08:21.378Z,7.60
2019-02-25T14:10:54.348Z,7.12
2019-02-25T14:13:26.555Z,7.58
2019-02-25T14:15:58.708Z,8.50
2019-02-25T14:18:30.900Z,8.98
2019-02-25T14:21:03.011Z,7.05
2019-02-25T14:23:35.065Z,6.47
2019-02-25T14:26:07.112Z,6.90
2019-02-25T14:28:39.223Z,7.37
2019-02-25T14:31:11.966Z,11.12
2019-02-25T14:33:44.904Z,8.20
2019-02-25T14:36:19.831Z,6.60
2019-02-25T14:38:54.043Z,7.33
2019-02-25T14:41:25.633Z,7.33
2019-02-25T14:43:58.735Z,7.28
2019-02-25T14:46:32.049Z,14.18
2019-02-25T14:49:04.080Z,10.60
2019-02-25T14:51:36.131Z,9.00
2019-02-25T14:54:08.323Z,8.15
2019-02-25T14:56:40.579Z,7.83
2019-02-25T14:59:15.616Z,10.38
2019-02-25T15:01:50.381Z,6.50
2019-02-25T15:04:24.221Z,8.15
2019-02-25T15:06:57.793Z,6.80
2019-02-25T15:09:33.169Z,6.45
2019-02-25T15:12:06.411Z,6.03
2019-02-25T15:14:38.708Z,6.28
2019-02-25T15:17:12.811Z,6.37
2019-02-25T15:19:45.435Z,6.58
2019-02-25T15:22:18.047Z,7.10
2019-02-25T15:24:50.406Z,7.15
2019-02-25T15:27:23.878Z,6.65
2019-02-25T15:29:57.851Z,6.53
2019-02-25T15:32:33.567Z,7.87
2019-02-25T15:35:06.828Z,8.58
2019-02-25T15:37:40.602Z,12.95
2019-02-25T15:40:18.187Z,8.40
2019-02-25T15:43:00.740Z,7.17
2019-02-25T15:45:35.388Z,7.20
2019-02-25T15:48:14.093Z,6.65
2019-02-25T15:50:48.494Z,9.20
2019-02-25T15:53:20.845Z,8.45
2019-02-25T15:55:57.206Z,7.42
2019-02-25T15:58:28.293Z,6.45
2019-02-25T16:01:00.666Z,6.90
2019-02-25T16:03:35.148Z,7.10
2019-02-25T16:06:10.147Z,7.85
2019-02-25T16:08:42.432Z,8.70
2019-02-25T16:11:16.193Z,6.80
2019-02-25T16:13:48.371Z,6.85
2019-02-25T16:16:20.600Z,7.75
2019-02-25T16:18:53.652Z,8.10
2019-02-25T16:21:26.650Z,6.75
2019-02-25T16:24:01.533Z,6.83
2019-02-25T16:26:36.038Z,7.95
2019-02-25T16:29:09.045Z,6.30
2019-02-25T16:31:42.008Z,6.47
2019-02-25T16:34:16.293Z,6.70
2019-02-25T16:36:51.989Z,6.78
2019-02-25T16:39:23.982Z,7.75
2019-02-25T16:41:56.400Z,7.03
2019-02-25T16:44:28.533Z,7.60
2019-02-25T16:47:00.751Z,7.50
2019-02-25T16:49:33.985Z,7.30
2019-02-25T16:52:08.322Z,9.05
2019-02-25T16:54:42.043Z,7.85
2019-02-25T16:57:18.427Z,8.83
2019-02-25T16:59:53.317Z,6.90
2019-02-25T17:02:24.329Z,6.62
2019-02-25T17:04:56.394Z,6.17
2019-02-25T17:07:28.863Z,6.83
2019-02-25T17:10:03.217Z,7.05
2019-02-25T17:12:37.317Z,6.40
2019-02-25T17:15:12.419Z,6.42
2019-02-25T17:17:44.681Z,6.28
2019-02-25T17:20:17.176Z,6.87
2019-02-25T17:22:52.251Z,6.97
2019-02-25T17:25:26.841Z,6.80
2019-02-25T17:28:00.134Z,6.85
2019-02-25T17:30:32.475Z,9.30
2019-02-25T17:33:08.077Z,7.75
2019-02-25T17:35:45.085Z,8.50
2019-02-25T17:38:18.203Z,8.43
2019-02-25T17:40:51.799Z,31.48
2019-02-25T17:43:23.889Z,19.12
2019-02-25T17:45:56.292Z,12.50
2019-02-25T17:48:29.795Z,12.18
2019-02-25T17:51:03.907Z,9.30
2019-02-25T17:53:37.769Z,7.40
2019-02-25T17:56:10.311Z,7.67
2019-02-25T17:58:44.508Z,7.78
2019-02-25T18:01:19.109Z,7.83
2019-02-25T18:03:52.649Z,7.65
2019-02-25T18:06:30.171Z,7.22
2019-02-25T18:09:01.923Z,6.83
2019-02-25T18:11:36.911Z,6.80
2019-02-25T18:14:10.789Z,7.28
2019-02-25T18:16:49.576Z,7.70
2019-02-25T18:19:24.921Z,9.18
2019-02-25T18:21:59.767Z,8.98
2019-02-25T18:24:33.689Z,10.72
2019-02-25T18:27:07.949Z,18.07
2019-02-25T18:29:41.328Z,10.93
2019-02-25T18:32:14.766Z,10.23
2019-02-25T18:34:47.752Z,32.75
2019-02-25T18:37:20.610Z,33.50
2019-02-25T18:39:54.446Z,23.87
2019-02-25T18:42:32.024Z,26.57
2019-02-25T18:45:05.821Z,19.95
2019-02-25T18:47:38.093Z,16.30
2019-02-25T18:50:19.910Z,14.95
2019-02-25T18:52:54.631Z,13.88
2019-02-25T18:55:32.106Z,12.65
2019-02-25T18:58:07.966Z,11.57
2019-02-25T19:00:44.628Z,13.05
2019-02-25T19:03:17.959Z,11.90
2019-02-25T19:05:51.117Z,15.80
2019-02-25T19:08:26.777Z,14.63
2019-02-25T19:10:59.360Z,13.32
2019-02-25T19:13:32.823Z,14.07
2019-02-25T19:16:09.475Z,13.68
2019-02-25T19:18:45.130Z,12.98
2019-02-25T19:21:23.299Z,12.98
2019-02-25T19:23:58.360Z,14.93
2019-02-25T19:26:33.823Z,14.43
2019-02-25T19:29:09.468Z,15.00
2019-02-25T19:31:42.572Z,14.70
2019-02-25T19:34:20.638Z,15.35
2019-02-25T19:37:00.301Z,16.67
2019-02-25T19:39:33.635Z,15.88
2019-02-25T19:42:09.055Z,17.82
2019-02-25T19:44:45.621Z,21.93
2019-02-25T19:47:19.451Z,27.35
2019-02-25T19:49:52.764Z,30.80
2019-02-25T19:52:32.740Z,34.43
2019-02-25T19:55:08.082Z,38.95
2019-02-25T19:57:44.234Z,39.83
2019-02-25T20:00:28.183Z,42.48
2019-02-25T20:03:05.837Z,44.48
2019-02-25T20:05:41.111Z,43.60
2019-02-25T20:08:11.635Z,34.48
2019-02-25T20:10:44.508Z,36.55
2019-02-25T20:13:17.622Z,32.03
2019-02-25T20:15:56.656Z,32.25
2019-02-25T20:18:33.843Z,36.08
2019-02-25T20:21:12.677Z,35.75
2019-02-25T20:23:53.845Z,39.23
2019-02-25T20:27:00.121Z,28.10
2019-02-25T20:29:49.258Z,23.42
2019-02-25T20:32:26.767Z,23.75
2019-02-25T20:38:22.529Z,33.88
2019-02-25T20:40:57.473Z,35.65
2019-02-25T20:43:32.947Z,42.40
2019-02-25T20:46:10.948Z,38.00
2019-02-25T20:48:48.426Z,121.15
2019-02-25T20:51:22.801Z,38.02
2019-02-25T20:54:02.923Z,33.85
2019-02-25T20:56:41.492Z,38.85
2019-02-25T20:59:15.314Z,56.28
2019-02-25T21:01:50.554Z,53.25
2019-02-25T21:04:29.066Z,49.42
2019-02-25T21:07:04.332Z,44.88
2019-02-25T21:09:42.157Z,40.05
2019-02-25T21:12:20.035Z,37.15
2019-02-25T21:14:53.740Z,35.90
2019-02-25T21:17:28.575Z,35.70
2019-02-25T21:20:10.849Z,33.63
2019-02-25T21:22:50.683Z,32.67
2019-02-25T21:25:26.502Z,32.70
2019-02-25T21:28:09.041Z,34.60
2019-02-25T21:30:50.640Z,35.90
2019-02-25T21:33:28.277Z,34.50
2019-02-25T21:36:06.644Z,33.60
2019-02-25T21:38:47.920Z,32.65
2019-02-25T21:41:25.858Z,33.35
2019-02-25T21:43:59.169Z,30.08
2019-02-25T21:46:49.570Z,26.73
2019-02-25T21:49:25.079Z,28.45
2019-02-25T21:52:00.325Z,28.67
2019-02-25T21:54:33.353Z,31.70
2019-02-25T21:57:07.427Z,35.88
2019-02-25T21:59:45.710Z,35.43
2019-02-25T22:02:20.183Z,39.45
2019-02-25T22:05:00.000Z,42.05
2019-02-25T22:07:33.234Z,38.67
2019-02-25T22:10:10.181Z,39.63
2019-02-25T22:12:47.402Z,42.78
2019-02-25T22:15:22.592Z,40.98
2019-02-25T22:17:58.488Z,39.03
2019-02-25T22:20:39.688Z,41.08
2019-02-25T22:23:15.474Z,44.50
2019-02-25T22:25:50.681Z,38.70
2019-02-25T22:28:24.876Z,46.30
2019-02-25T22:30:58.887Z,45.55
2019-02-25T22:33:35.917Z,41.80
2019-02-25T22:36:12.647Z,47.00
2019-02-25T22:38:47.197Z,41.98
2019-02-25T22:41:22.801Z,54.65
2019-02-25T22:43:56.585Z,52.08
2019-02-25T22:46:32.559Z,50.58
2019-02-25T22:49:07.264Z,39.60
2019-02-25T22:52:07.557Z,37.03
2019-02-25T22:54:43.560Z,37.75
2019-02-25T22:57:18.743Z,38.50
2019-02-25T22:59:54.298Z,36.70
2019-02-25T23:02:30.164Z,36.53
2019-02-25T23:05:03.386Z,34.85
2019-02-25T23:07:38.981Z,36.93
2019-02-25T23:10:12.749Z,34.78
2019-02-25T23:12:50.096Z,35.03
2019-02-25T23:15:27.500Z,38.10
2019-02-25T23:18:24.486Z,34.30
2019-02-25T23:21:04.515Z,32.80
2019-02-25T23:23:40.075Z,34.00
2019-02-25T23:26:14.881Z,40.80
2019-02-25T23:28:51.131Z,40.83
2019-02-25T23:31:29.933Z,40.55
2019-02-25T23:34:07.579Z,38.58
2019-02-25T23:36:43.020Z,37.00
2019-02-25T23:39:17.848Z,42.05
2019-02-25T23:41:53.678Z,45.90
2019-02-25T23:44:29.776Z,39.70
2019-02-25T23:47:04.395Z,45.00
2019-02-25T23:49:41.462Z,47.15
2019-02-25T23:52:16.776Z,37.55
2019-02-25T23:54:49.688Z,38.67
2019-02-25T23:57:28.293Z,36.98
